Time;durP1;ratioP1;P1;durP2;ratioP2;P2;SDS_P1;SDS_P2;PMS_P1;PMS_P2;Temp;Humidity;BMP_temperature;BMP_pressure;BME280_temperature;BME280_humidity;BME280_pressure;Samples;Min_cycle;Max_cycle;Signal;HPM_P1;HPM_P2
2022/05/14 00:00:46;;;;;;;1.75;1.40;;;25.70;46.90;;;;;;5027832;28;20076;-68
2022/05/14 00:03:13;;;;;;;1.60;1.50;;;25.60;46.90;;;;;;5031789;28;20425;-68
2022/05/14 00:05:42;;;;;;;1.20;1.17;;;25.60;46.90;;;;;;5031939;28;20050;-67
2022/05/14 00:08:10;;;;;;;1.42;1.33;;;25.60;46.90;;;;;;5031467;28;20041;-68
2022/05/14 00:13:25;;;;;;;1.70;1.60;;;25.60;46.90;;;;;;5031754;28;20053;-68
2022/05/14 00:15:53;;;;;;;1.50;1.40;;;25.60;47.50;;;;;;5031450;28;20572;-68
2022/05/14 00:18:21;;;;;;;1.50;1.35;;;25.60;46.90;;;;;;5031294;28;20553;-68
2022/05/14 00:20:48;;;;;;;1.63;1.52;;;25.60;46.90;;;;;;5031363;28;20045;-68
2022/05/14 00:23:15;;;;;;;1.25;1.20;;;25.60;47.00;;;;;;5031602;28;20104;-68
2022/05/14 00:25:43;;;;;;;1.40;1.23;;;25.60;47.00;;;;;;5031702;28;20437;-68
2022/05/14 00:28:10;;;;;;;1.20;1.20;;;25.60;47.00;;;;;;5029993;28;20084;-68
2022/05/14 00:30:37;;;;;;;2.10;1.60;;;25.60;47.00;;;;;;5029587;28;20050;-68
2022/05/14 00:33:05;;;;;;;1.15;1.13;;;25.60;47.00;;;;;;5027009;28;20042;-68
2022/05/14 00:35:33;;;;;;;1.33;1.23;;;25.50;47.00;;;;;;5031179;28;20095;-68
2022/05/14 00:38:01;;;;;;;2.20;1.67;;;25.50;47.50;;;;;;5030302;28;20050;-68
2022/05/14 00:40:36;;;;;;;1.33;1.23;;;25.50;46.90;;;;;;5030293;28;20583;-67
2022/05/14 00:43:05;;;;;;;1.48;1.38;;;25.50;46.90;;;;;;5030546;28;20046;-68
2022/05/14 00:45:36;;;;;;;1.48;1.38;;;25.50;46.90;;;;;;5028756;28;20486;-67
2022/05/14 00:48:04;;;;;;;1.63;1.52;;;25.60;47.00;;;;;;5030103;28;20045;-68
2022/05/14 00:50:50;;;;;;;2.10;1.83;;;25.50;47.00;;;;;;5029871;28;20579;-68
2022/05/14 00:53:23;;;;;;;1.38;1.33;;;25.50;47.00;;;;;;5029728;28;20068;-68
2022/05/14 00:55:53;;;;;;;1.40;1.30;;;25.50;47.00;;;;;;5029697;28;20049;-68
2022/05/14 00:58:39;;;;;;;1.60;1.50;;;25.50;47.00;;;;;;5029649;28;20077;-68
2022/05/14 01:01:07;;;;;;;1.73;1.25;;;25.50;47.00;;;;;;5029544;28;20053;-68
2022/05/14 01:03:35;;;;;;;2.33;1.60;;;25.50;46.90;;;;;;5024869;28;20345;-68
2022/05/14 01:06:05;;;;;;;1.85;1.52;;;25.50;46.90;;;;;;5028513;28;20414;-68
2022/05/14 01:08:35;;;;;;;3.35;1.80;;;25.50;46.90;;;;;;5027846;28;20049;-68
2022/05/14 01:11:03;;;;;;;1.63;1.52;;;25.50;46.90;;;;;;5029287;28;20100;-68
2022/05/14 01:13:31;;;;;;;1.85;1.75;;;25.50;46.90;;;;;;5029539;28;20085;-68
2022/05/14 01:16:01;;;;;;;2.10;1.73;;;25.60;47.00;;;;;;5027932;28;20053;-68
2022/05/14 01:18:31;;;;;;;1.50;1.38;;;25.50;46.90;;;;;;5029773;28;20468;-67
2022/05/14 01:21:21;;;;;;;2.20;1.67;;;25.60;47.00;;;;;;5028822;28;20115;-68
2022/05/14 01:26:49;;;;;;;1.48;1.38;;;25.50;46.90;;;;;;5028579;28;20676;-68
2022/05/14 01:29:19;;;;;;;2.00;1.83;;;25.50;46.90;;;;;;5028691;28;20494;-68
2022/05/14 01:31:48;;;;;;;1.95;1.65;;;25.60;46.90;;;;;;5029178;28;20060;-68
2022/05/14 01:34:20;;;;;;;1.60;1.50;;;25.50;46.90;;;;;;5023285;28;20045;-68
2022/05/14 01:36:47;;;;;;;1.60;1.50;;;25.50;46.90;;;;;;5029356;28;20120;-68
2022/05/14 01:39:15;;;;;;;1.52;1.42;;;25.50;46.90;;;;;;5029138;28;20089;-68
2022/05/14 01:41:42;;;;;;;1.40;1.30;;;25.50;46.90;;;;;;5029015;28;20103;-69
2022/05/14 01:44:10;;;;;;;2.30;2.10;;;25.50;46.90;;;;;;5028711;28;20314;-69
2022/05/14 01:46:37;;;;;;;1.67;1.35;;;25.50;46.90;;;;;;5028753;28;20057;-68
2022/05/14 01:49:04;;;;;;;1.45;1.35;;;25.50;47.00;;;;;;5029269;28;20072;-68
2022/05/14 01:51:32;;;;;;;1.52;1.40;;;25.50;47.00;;;;;;5028629;28;20103;-68
2022/05/14 01:54:00;;;;;;;1.67;1.58;;;25.50;47.00;;;;;;5029200;28;20123;-68
2022/05/14 01:56:27;;;;;;;1.42;1.30;;;25.50;47.00;;;;;;5028800;28;20115;-68
2022/05/14 01:58:54;;;;;;;1.50;1.40;;;25.40;47.00;;;;;;5028558;28;20088;-68
2022/05/14 02:01:26;;;;;;;1.92;1.73;;;25.40;46.90;;;;;;5028937;28;20073;-68
2022/05/14 02:04:02;;;;;;;1.60;1.50;;;25.40;47.00;;;;;;5028912;28;20061;-68
2022/05/14 02:06:30;;;;;;;1.63;1.52;;;25.40;47.00;;;;;;5022902;28;20529;-68
2022/05/14 02:08:58;;;;;;;1.50;1.40;;;25.40;47.00;;;;;;5026395;28;20049;-68
2022/05/14 02:11:27;;;;;;;1.33;1.23;;;25.40;47.00;;;;;;5028646;28;20076;-69
2022/05/14 02:13:55;;;;;;;1.95;1.80;;;25.40;47.00;;;;;;5028895;28;20051;-69
2022/05/14 02:16:23;;;;;;;1.52;1.42;;;25.40;47.00;;;;;;5026692;28;20049;-68
2022/05/14 02:18:50;;;;;;;1.38;1.27;;;25.40;47.00;;;;;;5028580;28;20057;-68
2022/05/14 02:21:20;;;;;;;2.20;1.35;;;25.40;47.00;;;;;;5028194;28;20053;-68
2022/05/14 02:23:48;;;;;;;1.63;1.52;;;25.40;47.00;;;;;;5028432;28;20053;-68
2022/05/14 02:26:15;;;;;;;1.48;1.38;;;25.40;47.00;;;;;;5028652;28;20096;-68
2022/05/14 02:28:43;;;;;;;1.65;1.45;;;25.40;47.00;;;;;;5028836;28;20058;-69
2022/05/14 02:31:11;;;;;;;1.58;1.48;;;25.40;47.00;;;;;;5028050;28;20049;-69
2022/05/14 02:33:39;;;;;;;1.38;1.35;;;25.40;47.00;;;;;;5030488;28;20073;-68
2022/05/14 02:36:07;;;;;;;1.45;1.35;;;25.40;47.00;;;;;;5032709;28;20088;-69
2022/05/14 02:38:36;;;;;;;1.33;1.23;;;25.40;47.00;;;;;;5028422;28;20546;-69
2022/05/14 02:41:05;;;;;;;1.20;1.20;;;25.40;47.00;;;;;;5032280;28;20084;-68
2022/05/14 02:43:33;;;;;;;2.10;1.75;;;25.40;47.00;;;;;;5031482;28;20172;-68
2022/05/14 02:46:01;;;;;;;1.70;1.58;;;25.40;47.00;;;;;;5031983;28;20123;-68
2022/05/14 02:48:29;;;;;;;2.10;1.63;;;25.40;47.00;;;;;;5032180;28;20049;-69
2022/05/14 02:50:57;;;;;;;2.65;2.05;;;25.40;47.00;;;;;;5030588;28;20341;-68
2022/05/14 02:53:24;;;;;;;1.55;1.45;;;25.40;47.00;;;;;;5032248;28;20341;-68
2022/05/14 02:55:52;;;;;;;1.38;1.30;;;25.40;47.00;;;;;;5031956;28;20053;-69
2022/05/14 03:01:07;;;;;;;1.70;1.60;;;25.40;47.00;;;;;;5031944;28;20537;-69
2022/05/14 03:03:34;;;;;;;1.50;1.40;;;25.40;46.90;;;;;;5030542;28;20585;-69
2022/05/14 03:06:02;;;;;;;2.00;1.88;;;25.40;46.90;;;;;;5032015;28;20037;-69
2022/05/14 03:08:29;;;;;;;2.20;1.45;;;25.40;46.90;;;;;;5031974;28;20057;-70
2022/05/14 03:10:57;;;;;;;1.42;1.33;;;25.40;46.90;;;;;;5027263;28;20330;-69
2022/05/14 03:13:24;;;;;;;2.67;1.50;;;25.40;46.90;;;;;;5031876;28;20069;-69
2022/05/14 03:15:51;;;;;;;1.50;1.40;;;25.40;46.90;;;;;;5031453;28;20064;-69
2022/05/14 03:18:18;;;;;;;1.33;1.23;;;25.40;46.90;;;;;;5032057;28;20312;-69
2022/05/14 03:20:46;;;;;;;1.38;1.27;;;25.40;46.90;;;;;;5030845;28;20497;-68
2022/05/14 03:23:15;;;;;;;2.42;1.45;;;25.40;46.90;;;;;;5029976;28;20046;-68
2022/05/14 03:25:42;;;;;;;1.58;1.48;;;25.40;46.90;;;;;;5031793;28;20049;-68
2022/05/14 03:28:10;;;;;;;1.33;1.23;;;25.40;46.90;;;;;;5031381;28;20041;-68
2022/05/14 03:30:37;;;;;;;1.30;1.20;;;25.40;46.90;;;;;;5031798;28;20062;-68
2022/05/14 03:33:05;;;;;;;1.42;1.33;;;25.40;46.90;;;;;;5029752;28;20243;-68
2022/05/14 03:35:32;;;;;;;1.77;1.60;;;25.40;46.90;;;;;;5031429;28;20056;-68
2022/05/14 03:37:59;;;;;;;1.50;1.17;;;25.40;46.90;;;;;;5031245;28;20049;-69
2022/05/14 03:40:26;;;;;;;1.63;1.52;;;25.40;46.90;;;;;;5025262;28;20111;-69
2022/05/14 03:42:53;;;;;;;1.27;1.17;;;25.40;46.90;;;;;;5031693;28;20099;-68
2022/05/14 03:45:21;;;;;;;1.55;1.40;;;25.40;46.90;;;;;;5030333;28;20444;-68
2022/05/14 03:47:48;;;;;;;1.52;1.42;;;25.40;46.80;;;;;;5030936;28;20343;-68
2022/05/14 03:50:15;;;;;;;1.27;1.15;;;25.40;46.80;;;;;;5031036;28;20053;-68
2022/05/14 03:52:42;;;;;;;1.40;1.30;;;25.40;46.80;;;;;;5030612;28;20088;-68
2022/05/14 03:55:10;;;;;;;1.65;1.55;;;25.40;46.80;;;;;;5031027;28;20045;-68
2022/05/14 03:57:38;;;;;;;1.40;1.30;;;25.40;46.80;;;;;;5030623;28;20153;-69
2022/05/14 04:00:07;;;;;;;1.00;1.00;;;25.40;46.70;;;;;;5032252;28;20081;-69
2022/05/14 04:02:35;;;;;;;1.42;1.33;;;25.50;46.70;;;;;;5030551;28;20055;-68
2022/05/14 04:05:03;;;;;;;1.40;1.40;;;25.50;46.70;;;;;;5031888;28;20053;-69
2022/05/14 04:07:33;;;;;;;2.72;1.30;;;25.50;46.70;;;;;;5030471;28;20045;-69
2022/05/14 04:10:00;;;;;;;;;;;25.50;46.70;;;;;;5031346;28;20057;-69
2022/05/14 04:12:31;;;;;;;0.95;0.95;;;25.50;46.60;;;;;;5027350;28;20020;-68
2022/05/14 04:14:58;;;;;;;1.50;1.40;;;25.50;46.60;;;;;;5031916;28;20387;-68
2022/05/14 04:17:25;;;;;;;1.77;1.20;;;25.50;46.50;;;;;;5029682;28;20045;-68
2022/05/14 04:19:52;;;;;;;1.63;1.15;;;25.50;46.50;;;;;;5030743;28;20057;-68
2022/05/14 04:22:19;;;;;;;1.40;1.30;;;25.60;46.60;;;;;;5029951;28;20130;-68
2022/05/14 04:24:47;;;;;;;1.63;1.50;;;25.60;46.50;;;;;;5030022;28;20123;-68
2022/05/14 04:27:14;;;;;;;0.98;0.98;;;25.60;46.50;;;;;;5028473;28;20103;-68
2022/05/14 04:29:41;;;;;;;1.20;1.20;;;25.60;46.60;;;;;;5030689;28;20080;-68
2022/05/14 04:32:08;;;;;;;1.70;1.45;;;25.70;46.40;;;;;;5030306;28;20053;-68
2022/05/14 04:34:40;;;;;;;1.05;1.02;;;25.70;46.40;;;;;;5029569;28;20049;-68
2022/05/14 04:37:08;;;;;;;1.10;1.10;;;25.70;46.30;;;;;;5030296;28;20466;-68
2022/05/14 04:39:35;;;;;;;1.13;1.13;;;25.70;46.20;;;;;;5029915;28;20046;-68
2022/05/14 04:42:06;;;;;;;1.42;1.33;;;25.70;46.20;;;;;;5030016;28;20041;-68
2022/05/14 04:44:35;;;;;;;1.52;1.27;;;25.70;46.10;;;;;;5025287;28;20605;-68
2022/05/14 04:47:03;;;;;;;1.38;1.27;;;25.80;46.10;;;;;;5028791;28;20041;-69
2022/05/14 04:49:41;;;;;;;1.30;1.20;;;25.80;46.10;;;;;;5029909;28;20529;-68
2022/05/14 04:52:09;;;;;;;2.05;1.20;;;25.80;46.00;;;;;;5029904;28;20115;-68
2022/05/14 04:54:37;;;;;;;1.48;1.40;;;25.80;45.90;;;;;;5029652;28;20057;-68
2022/05/14 04:57:05;;;;;;;1.65;1.13;;;25.80;45.90;;;;;;5028093;28;20111;-68
2022/05/14 04:59:33;;;;;;;1.13;1.02;;;25.90;45.90;;;;;;5028994;28;20217;-68
2022/05/14 05:04:48;;;;;;;1.25;1.15;;;25.90;45.80;;;;;;5029685;28;20103;-68
2022/05/14 05:07:15;;;;;;;1.08;1.08;;;25.90;45.70;;;;;;5030020;28;20077;-68
2022/05/14 05:09:42;;;;;;;1.23;1.10;;;25.90;45.60;;;;;;5029196;28;20111;-69
2022/05/14 05:12:10;;;;;;;1.48;1.38;;;25.90;45.70;;;;;;5028640;28;20096;-69
2022/05/14 05:14:37;;;;;;;1.25;1.15;;;25.80;45.60;;;;;;5029856;28;20077;-69
2022/05/14 05:17:04;;;;;;;1.42;1.33;;;25.80;45.70;;;;;;5024444;28;20096;-69
2022/05/14 05:19:32;;;;;;;1.48;1.13;;;25.70;45.70;;;;;;5029352;28;20436;-68
2022/05/14 05:21:59;;;;;;;1.27;1.17;;;25.60;45.90;;;;;;5027866;28;20045;-69
2022/05/14 05:24:26;;;;;;;1.23;1.15;;;25.40;46.10;;;;;;5028449;28;20129;-68
2022/05/14 05:26:53;;;;;;;1.17;1.08;;;25.20;46.40;;;;;;5029746;28;20107;-68
2022/05/14 05:29:20;;;;;;;1.00;1.00;;;25.00;46.90;;;;;;5027587;28;20041;-68
2022/05/14 05:31:47;;;;;;;1.33;1.23;;;24.80;47.30;;;;;;5029275;28;20061;-68
2022/05/14 05:34:15;;;;;;;0.90;0.90;;;24.50;47.80;;;;;;5028193;28;20136;-67
2022/05/14 05:36:42;;;;;;;1.00;1.00;;;24.30;48.40;;;;;;5015308;28;20038;-67
2022/05/14 05:39:10;;;;;;;1.40;1.30;;;24.10;48.90;;;;;;5013334;28;20594;-68
2022/05/14 05:41:38;;;;;;;1.13;1.13;;;23.90;49.30;;;;;;5027133;28;20049;-68
2022/05/14 05:44:05;;;;;;;1.02;1.02;;;23.70;49.80;;;;;;5026863;28;20037;-68
2022/05/14 05:46:33;;;;;;;1.38;1.38;;;23.50;50.80;;;;;;5026415;28;20080;-68
2022/05/14 05:49:00;;;;;;;1.10;1.10;;;23.30;50.60;;;;;;5024422;28;20473;-68
2022/05/14 05:51:28;;;;;;;1.55;1.45;;;23.20;50.90;;;;;;5027643;28;20194;-68
2022/05/14 05:56:56;;;;;;;1.23;1.15;;;22.90;51.70;;;;;;5026523;28;20052;-67
2022/05/14 05:59:24;;;;;;;1.08;1.08;;;22.80;51.90;;;;;;5027590;28;20049;-67
2022/05/14 06:01:52;;;;;;;1.27;1.17;;;22.70;52.20;;;;;;5028083;28;20517;-67
2022/05/14 06:04:21;;;;;;;1.33;1.23;;;22.60;52.50;;;;;;5028421;28;20054;-67
2022/05/14 06:06:48;;;;;;;1.00;1.00;;;22.50;52.60;;;;;;5030356;28;20041;-67
2022/05/14 06:09:18;;;;;;;1.70;1.60;;;22.40;52.70;;;;;;5035025;28;20437;-68
2022/05/14 06:11:46;;;;;;;3.00;1.58;;;22.30;53.10;;;;;;5038029;28;20044;-68
2022/05/14 06:14:13;;;;;;;1.30;1.20;;;22.20;53.30;;;;;;5032800;28;20068;-67
2022/05/14 06:16:41;;;;;;;1.42;1.33;;;22.10;53.30;;;;;;5008768;28;20049;-67
2022/05/14 06:19:09;;;;;;;1.27;1.27;;;22.00;53.50;;;;;;5022658;28;20068;-68
2022/05/14 06:21:39;;;;;;;1.08;1.08;;;22.00;53.70;;;;;;5027198;28;20204;-68
2022/05/14 06:24:08;;;;;;;1.58;1.48;;;21.90;53.60;;;;;;5038635;28;20053;-68
2022/05/14 06:26:37;;;;;;;1.60;1.50;;;21.90;53.70;;;;;;5026126;28;20076;-67
2022/05/14 06:29:07;;;;;;;1.50;1.40;;;21.80;54.00;;;;;;5028224;28;20049;-68
2022/05/14 06:31:35;;;;;;;1.58;1.48;;;21.80;54.00;;;;;;5025390;28;20052;-68
2022/05/14 06:34:03;;;;;;;1.63;1.52;;;21.80;53.90;;;;;;5027049;28;20060;-71
2022/05/14 06:36:30;;;;;;;1.98;1.50;;;21.70;54.10;;;;;;5028260;28;20072;-71
2022/05/14 06:38:57;;;;;;;1.10;1.10;;;21.70;54.20;;;;;;5028859;28;20100;-70
2022/05/14 06:41:24;;;;;;;2.35;1.35;;;21.60;54.10;;;;;;5024394;28;20073;-70
2022/05/14 06:43:51;;;;;;;1.50;1.40;;;21.60;54.20;;;;;;5021640;28;20073;-71
2022/05/14 06:46:19;;;;;;;1.27;1.20;;;21.50;54.30;;;;;;5026095;28;20049;-68
2022/05/14 06:48:46;;;;;;;1.55;1.15;;;21.50;54.30;;;;;;5025284;28;20084;-68
2022/05/14 06:51:24;;;;;;;2.05;1.48;;;21.50;54.30;;;;;;5014187;28;20389;-68
2022/05/14 06:53:55;;;;;;;1.52;1.42;;;21.50;54.50;;;;;;5026935;28;20448;-68
2022/05/14 06:56:23;;;;;;;1.55;1.45;;;21.50;54.50;;;;;;5019938;28;20049;-68
2022/05/14 06:58:50;;;;;;;1.23;1.23;;;21.40;54.30;;;;;;5025013;28;20465;-68
2022/05/14 07:01:19;;;;;;;1.45;1.35;;;21.40;54.60;;;;;;5028255;28;20080;-67
2022/05/14 07:06:37;;;;;;;1.45;1.35;;;21.40;54.30;;;;;;5028432;28;20080;-68
2022/05/14 07:09:22;;;;;;;1.60;1.50;;;21.30;54.50;;;;;;5028122;28;20077;-67
2022/05/14 07:11:52;;;;;;;1.65;1.60;;;21.30;54.90;;;;;;5027689;28;20053;-67
2022/05/14 07:14:20;;;;;;;1.42;1.33;;;21.30;54.50;;;;;;5027831;28;20076;-70
2022/05/14 07:16:48;;;;;;;1.48;1.38;;;21.30;54.50;;;;;;5027983;28;20100;-70
2022/05/14 07:19:15;;;;;;;1.52;1.42;;;21.30;55.10;;;;;;5026912;28;20131;-70
2022/05/14 07:21:44;;;;;;;1.50;1.40;;;21.30;54.80;;;;;;5031288;28;20049;-70
2022/05/14 07:24:28;;;;;;;1.02;1.02;;;21.30;54.50;;;;;;5026878;28;20076;-70
2022/05/14 07:26:59;;;;;;;1.90;1.65;;;21.20;55.10;;;;;;5030191;28;20057;-70
2022/05/14 07:29:27;;;;;;;1.40;1.35;;;21.20;55.20;;;;;;5031101;28;20061;-70
2022/05/14 07:31:54;;;;;;;1.60;1.50;;;21.20;54.70;;;;;;5031177;28;20053;-70
2022/05/14 07:34:22;;;;;;;1.15;1.15;;;21.20;55.10;;;;;;5031643;28;20056;-69
2022/05/14 07:37:16;;;;;;;1.63;1.52;;;21.20;55.50;;;;;;5031179;28;20084;-70
2022/05/14 07:39:52;;;;;;;1.45;1.35;;;21.10;54.80;;;;;;5031512;28;20096;-70
2022/05/14 07:42:33;;;;;;;1.38;1.27;;;21.10;55.10;;;;;;5031168;28;20238;-70
2022/05/14 07:45:03;;;;;;;1.42;1.38;;;21.10;55.30;;;;;;5030922;28;20673;-70
2022/05/14 07:47:31;;;;;;;1.63;1.52;;;21.10;54.90;;;;;;5030683;28;20123;-70
2022/05/14 07:50:00;;;;;;;1.55;1.30;;;21.10;55.00;;;;;;5030582;28;20236;-71
2022/05/14 07:52:34;;;;;;;1.40;1.40;;;21.10;55.30;;;;;;5031213;28;20049;-70
2022/05/14 07:55:02;;;;;;;1.50;1.50;;;21.10;55.10;;;;;;5026366;28;20049;-70
2022/05/14 07:57:29;;;;;;;1.40;1.30;;;21.10;55.00;;;;;;5030923;28;20103;-70
2022/05/14 07:59:56;;;;;;;1.58;1.48;;;21.10;55.40;;;;;;5030893;28;20041;-70
2022/05/14 08:02:28;;;;;;;1.20;1.20;;;21.10;55.40;;;;;;5030208;28;20053;-70
2022/05/14 08:04:56;;;;;;;1.50;1.40;;;21.10;55.00;;;;;;5030506;28;20049;-69
2022/05/14 08:07:23;;;;;;;1.33;1.23;;;21.10;55.10;;;;;;5031032;28;20053;-68
2022/05/14 08:09:58;;;;;;;1.50;1.05;;;21.20;55.30;;;;;;5030979;28;20045;-68
2022/05/14 08:12:31;;;;;;;1.60;1.50;;;21.20;54.80;;;;;;5030124;28;20050;-68
2022/05/14 08:14:58;;;;;;;1.60;1.50;;;21.20;54.80;;;;;;5029620;28;20080;-69
2022/05/14 08:17:27;;;;;;;2.08;1.45;;;21.20;55.10;;;;;;5029208;28;20312;-68
2022/05/14 08:19:54;;;;;;;1.10;1.10;;;21.20;54.90;;;;;;5029355;28;20103;-68
2022/05/14 08:25:10;;;;;;;1.58;1.48;;;21.20;55.20;;;;;;5028814;28;20072;-68
2022/05/14 08:27:47;;;;;;;1.27;1.17;;;21.20;55.30;;;;;;5028745;28;20226;-68
2022/05/14 08:30:20;;;;;;;1.52;1.42;;;21.20;55.00;;;;;;5030257;28;20077;-68
2022/05/14 08:32:47;;;;;;;1.42;1.42;;;21.20;54.90;;;;;;5030375;28;20053;-68
2022/05/14 08:35:16;;;;;;;1.00;1.00;;;21.20;54.90;;;;;;5030324;28;20083;-67
2022/05/14 08:37:44;;;;;;;1.48;1.38;;;21.20;54.90;;;;;;5029848;28;20122;-68
2022/05/14 08:40:33;;;;;;;1.65;1.55;;;21.30;54.80;;;;;;5030196;28;20107;-68
2022/05/14 08:43:03;;;;;;;1.23;1.23;;;21.30;54.60;;;;;;5028868;28;20046;-67
2022/05/14 08:45:36;;;;;;;1.17;1.15;;;21.30;54.50;;;;;;5029940;28;20083;-67
2022/05/14 08:48:10;;;;;;;1.45;1.40;;;21.30;54.60;;;;;;5029780;28;20628;-67
2022/05/14 08:50:39;;;;;;;1.13;1.10;;;21.30;54.50;;;;;;5030144;28;20053;-67
2022/05/14 08:53:10;;;;;;;1.25;1.15;;;21.30;54.40;;;;;;5029700;28;20301;-68
2022/05/14 08:55:49;;;;;;;1.05;1.05;;;21.40;54.60;;;;;;5028771;28;20045;-68
2022/05/14 08:58:36;;;;;;;1.10;1.10;;;21.30;54.80;;;;;;5025221;28;20084;-68
2022/05/14 09:01:06;;;;;;;1.05;1.05;;;21.40;54.50;;;;;;5027929;28;20042;-68
2022/05/14 09:03:34;;;;;;;1.27;1.17;;;21.40;54.30;;;;;;5012502;28;20100;-67
2022/05/14 09:06:01;;;;;;;1.30;1.30;;;21.40;54.20;;;;;;5028374;28;20045;-68
2022/05/14 09:08:28;;;;;;;1.00;1.00;;;21.50;54.00;;;;;;5030233;28;20087;-67
2022/05/14 09:11:04;;;;;;;1.08;0.93;;;21.40;53.90;;;;;;5027657;28;20108;-68
2022/05/14 09:13:43;;;;;;;1.40;1.20;;;21.40;53.80;;;;;;5029601;28;20049;-68
2022/05/14 09:16:26;;;;;;;1.50;1.40;;;21.40;53.70;;;;;;5028315;28;20517;-68
2022/05/14 09:18:54;;;;;;;1.00;1.00;;;21.40;53.80;;;;;;5028158;28;20056;-68
2022/05/14 09:21:28;;;;;;;1.20;1.20;;;21.40;53.50;;;;;;5029291;28;20053;-67
2022/05/14 09:24:03;;;;;;;0.90;0.90;;;21.40;53.50;;;;;;5029417;28;20046;-67
2022/05/14 09:26:38;;;;;;;1.10;1.10;;;21.50;53.70;;;;;;5029390;28;20079;-68
2022/05/14 09:29:24;;;;;;;0.88;0.88;;;21.50;53.80;;;;;;5024559;28;20045;-68
2022/05/14 09:31:59;;;;;;;1.10;1.10;;;21.50;53.60;;;;;;5027906;28;20061;-67
2022/05/14 09:34:33;;;;;;;1.55;1.45;;;21.50;53.40;;;;;;5029051;28;20054;-67
2022/05/14 09:37:10;;;;;;;1.38;1.27;;;21.50;53.10;;;;;;5029728;28;20433;-68
2022/05/14 09:39:39;;;;;;;0.95;0.95;;;21.50;53.00;;;;;;5027669;28;20417;-68
2022/05/14 09:42:26;;;;;;;1.15;1.05;;;21.50;52.80;;;;;;5028487;28;20045;-68
2022/05/14 09:44:57;;;;;;;0.95;0.95;;;21.50;52.70;;;;;;5029113;28;20050;-68
2022/05/14 09:47:27;;;;;;;0.80;0.80;;;21.50;52.60;;;;;;5027792;28;20045;-67
2022/05/14 09:50:02;;;;;;;0.75;0.75;;;21.50;52.50;;;;;;5028233;28;20506;-67
2022/05/14 09:52:33;;;;;;;1.48;0.80;;;21.50;52.40;;;;;;5029177;28;20049;-67
2022/05/14 09:55:05;;;;;;;1.30;1.00;;;21.50;52.30;;;;;;5029008;28;20176;-68
2022/05/14 09:57:55;;;;;;;0.93;0.93;;;21.50;52.10;;;;;;5027342;28;20046;-68
2022/05/14 10:00:42;;;;;;;1.00;1.00;;;21.50;51.90;;;;;;5024430;28;20072;-68
2022/05/14 10:03:49;;;;;;;1.13;1.02;;;21.50;51.80;;;;;;5028696;28;20059;-68
2022/05/14 10:06:44;;;;;;;0.80;0.80;;;21.50;51.70;;;;;;5029098;28;20088;-67
2022/05/14 10:09:26;;;;;;;0.73;0.73;;;21.50;51.60;;;;;;5027108;28;20057;-68
2022/05/14 10:12:09;;;;;;;0.80;0.80;;;21.50;51.50;;;;;;5028865;28;20341;-67
2022/05/14 10:15:16;;;;;;;0.80;0.80;;;21.50;51.30;;;;;;5027424;28;20104;-67
2022/05/14 10:18:23;;;;;;;1.55;0.80;;;21.50;51.30;;;;;;5028413;28;20045;-67
2022/05/14 10:21:18;;;;;;;0.90;0.90;;;21.50;51.00;;;;;;5028756;28;20050;-67
2022/05/14 10:27:31;;;;;;;0.80;0.80;;;21.50;50.70;;;;;;5027368;28;20049;-68
2022/05/14 10:30:17;;;;;;;0.63;0.63;;;21.50;50.50;;;;;;5027679;28;20084;-68
2022/05/14 10:32:47;;;;;;;0.90;0.90;;;21.50;50.40;;;;;;5023756;28;20567;-68
2022/05/14 10:35:54;;;;;;;0.88;0.88;;;21.50;50.20;;;;;;5028439;28;20045;-68
2022/05/14 10:38:46;;;;;;;0.82;0.82;;;21.50;50.10;;;;;;5028999;28;20077;-68
2022/05/14 10:41:37;;;;;;;3.33;0.90;;;21.60;50.00;;;;;;5027296;28;20567;-68
2022/05/14 10:44:26;;;;;;;0.73;0.73;;;21.60;49.80;;;;;;5028598;28;20543;-68
2022/05/14 10:46:59;;;;;;;1.30;1.00;;;21.60;49.80;;;;;;5020584;28;20088;-67
2022/05/14 10:49:39;;;;;;;0.70;0.70;;;21.50;49.70;;;;;;5024822;28;20111;-68
2022/05/14 10:52:15;;;;;;;1.20;1.10;;;21.60;49.70;;;;;;5022497;28;20127;-68
2022/05/14 10:54:44;;;;;;;0.75;0.75;;;21.60;49.60;;;;;;5024283;28;20065;-68
2022/05/14 10:57:38;;;;;;;2.55;0.82;;;21.60;49.50;;;;;;5025805;28;20567;-68
2022/05/14 11:00:39;;;;;;;1.08;1.08;;;21.60;49.40;;;;;;5017639;28;20056;-68
2022/05/14 11:03:25;;;;;;;1.02;0.93;;;21.60;49.30;;;;;;5025571;28;20049;-64
2022/05/14 11:06:09;;;;;;;0.70;0.70;;;21.50;49.30;;;;;;5029257;28;20045;-67
2022/05/14 11:08:44;;;;;;;0.70;0.70;;;21.60;49.30;;;;;;5020823;28;20038;-67
2022/05/14 11:11:26;;;;;;;0.75;0.75;;;21.60;49.20;;;;;;5031785;28;20053;-67
2022/05/14 11:14:04;;;;;;;0.52;0.52;;;21.60;49.10;;;;;;5020872;28;20045;-67
2022/05/14 11:16:47;;;;;;;0.70;0.70;;;21.60;48.90;;;;;;5029363;28;20456;-68
2022/05/14 11:19:33;;;;;;;0.85;0.75;;;21.60;48.80;;;;;;5031599;28;20054;-68
2022/05/14 11:22:02;;;;;;;4.03;0.90;;;21.60;48.70;;;;;;5029984;28;20041;-67
2022/05/14 11:24:41;;;;;;;0.80;0.80;;;21.60;48.70;;;;;;5031481;28;20084;-67
2022/05/14 11:27:10;;;;;;;0.70;0.70;;;21.60;48.60;;;;;;5031612;28;20041;-67
2022/05/14 11:29:57;;;;;;;0.68;0.52;;;21.60;48.40;;;;;;5029897;28;20057;-67
2022/05/14 11:32:25;;;;;;;0.57;0.57;;;21.60;48.90;;;;;;5044870;28;20048;-67
2022/05/14 11:34:58;;;;;;;0.73;0.73;;;21.60;48.30;;;;;;5024309;28;20448;-67
2022/05/14 11:37:32;;;;;;;0.65;0.65;;;21.70;48.20;;;;;;5031834;28;20045;-67
2022/05/14 11:40:25;;;;;;;0.75;0.50;;;21.70;48.10;;;;;;5029937;28;20348;-67
2022/05/14 11:43:10;;;;;;;1.00;1.00;;;21.70;48.00;;;;;;5023344;28;20592;-67
2022/05/14 11:45:49;;;;;;;0.68;0.68;;;21.70;48.50;;;;;;5027508;28;20485;-67
2022/05/14 11:48:25;;;;;;;0.93;0.93;;;21.70;47.90;;;;;;5011729;28;20096;-67
2022/05/14 11:51:29;;;;;;;1.00;0.88;;;21.70;47.80;;;;;;5025560;28;20087;-67
2022/05/14 11:54:10;;;;;;;0.60;0.60;;;21.70;47.70;;;;;;5028690;28;20053;-67
2022/05/14 11:57:00;;;;;;;0.70;0.70;;;21.70;47.70;;;;;;5058734;28;20054;-67
2022/05/14 11:59:40;;;;;;;0.75;0.75;;;21.70;47.60;;;;;;5030947;28;20077;-67
2022/05/14 12:02:19;;;;;;;0.60;0.60;;;21.70;47.60;;;;;;5030917;28;20430;-67
2022/05/14 12:04:53;;;;;;;0.88;0.88;;;21.70;47.50;;;;;;5018329;28;20046;-67
2022/05/14 12:07:41;;;;;;;0.63;0.60;;;21.70;47.50;;;;;;5013709;28;20072;-67
2022/05/14 12:10:23;;;;;;;0.60;0.60;;;21.70;47.40;;;;;;5027093;28;20136;-67
2022/05/14 12:13:09;;;;;;;0.60;0.60;;;21.70;47.40;;;;;;5030596;28;20049;-67
2022/05/14 12:15:47;;;;;;;0.73;0.73;;;21.70;47.50;;;;;;5030313;28;20049;-67
2022/05/14 12:18:15;;;;;;;1.02;0.57;;;21.70;47.50;;;;;;5030674;28;20076;-67
2022/05/14 12:20:45;;;;;;;1.02;0.80;;;21.70;47.40;;;;;;5030598;28;20184;-67
2022/05/14 12:23:17;;;;;;;;;;;21.70;47.40;;;;;;5030871;28;20064;-67
2022/05/14 12:25:48;;;;;;;0.55;0.55;;;21.70;47.20;;;;;;5030693;28;19947;-67
2022/05/14 12:28:25;;;;;;;0.70;0.70;;;21.70;47.30;;;;;;5030438;28;20053;-67
2022/05/14 12:34:04;;;;;;;0.80;0.80;;;21.80;47.20;;;;;;5030289;28;20049;-67
2022/05/14 12:36:48;;;;;;;0.73;0.65;;;21.70;47.10;;;;;;5028586;28;20432;-68
2022/05/14 12:39:29;;;;;;;0.98;0.88;;;21.70;47.10;;;;;;5028938;28;20222;-67
2022/05/14 12:42:04;;;;;;;0.82;0.82;;;21.70;47.00;;;;;;5029771;28;20057;-67
2022/05/14 12:44:41;;;;;;;0.70;0.70;;;21.70;47.10;;;;;;5059891;28;20053;-67
2022/05/14 12:47:09;;;;;;;1.52;0.43;;;21.80;47.00;;;;;;5029755;28;20214;-67
2022/05/14 12:49:41;;;;;;;0.50;0.50;;;21.80;47.00;;;;;;5030461;28;20226;-67
2022/05/14 12:52:12;;;;;;;0.60;0.60;;;21.80;47.00;;;;;;5029521;28;20045;-67
2022/05/14 12:55:10;;;;;;;0.80;0.80;;;21.80;46.90;;;;;;5030302;28;20053;-67
2022/05/14 12:57:43;;;;;;;0.70;0.70;;;21.80;46.80;;;;;;5029447;28;20084;-67
2022/05/14 13:00:15;;;;;;;0.98;0.50;;;21.80;46.70;;;;;;5029718;28;20084;-67
2022/05/14 13:02:55;;;;;;;1.25;0.68;;;21.80;47.20;;;;;;5029743;28;20045;-67
2022/05/14 13:05:45;;;;;;;0.40;0.40;;;21.80;46.60;;;;;;5029166;28;20111;-67
2022/05/14 13:08:19;;;;;;;0.60;0.60;;;21.90;46.60;;;;;;5061502;28;20054;-67
2022/05/14 13:10:50;;;;;;;0.70;0.70;;;21.90;46.60;;;;;;5024741;28;20045;-67
2022/05/14 13:13:19;;;;;;;0.40;0.40;;;21.90;46.50;;;;;;5029761;28;20085;-68
2022/05/14 13:15:55;;;;;;;1.52;0.50;;;21.90;46.50;;;;;;5029315;28;20077;-67
2022/05/14 13:18:32;;;;;;;0.80;0.80;;;21.90;46.40;;;;;;5028461;28;20049;-68
2022/05/14 13:21:13;;;;;;;4.18;0.60;;;21.90;46.40;;;;;;5029953;28;20314;-67
2022/05/14 13:23:52;;;;;;;2.22;0.70;;;22.00;46.30;;;;;;5028995;28;20111;-67
2022/05/14 13:26:45;;;;;;;0.85;0.80;;;21.90;46.30;;;;;;5029210;28;20046;-67
2022/05/14 13:29:31;;;;;;;0.90;0.90;;;21.90;46.20;;;;;;5055064;28;20445;-68
2022/05/14 13:32:27;;;;;;;0.90;0.63;;;22.00;46.20;;;;;;5058446;28;20086;-66
2022/05/14 13:38:13;;;;;;;0.50;0.50;;;22.00;46.10;;;;;;5029193;28;20037;-67
2022/05/14 13:40:49;;;;;;;0.30;0.30;;;22.00;46.00;;;;;;5024795;28;20111;-67
2022/05/14 13:43:32;;;;;;;0.50;0.50;;;22.00;45.90;;;;;;5029349;28;20045;-66
2022/05/14 13:46:04;;;;;;;0.57;0.57;;;22.00;45.90;;;;;;5028881;28;20375;-66